createdAt,value
2018-05-13T00:00:05.083Z,57.84
2018-05-13T00:00:42.597Z,61.44
2018-05-13T00:01:17.787Z,69.96
2018-05-13T00:01:53.353Z,121.93
2018-05-13T00:02:28.863Z,90.67
2018-05-13T00:03:04.380Z,158.42
2018-05-13T00:03:39.815Z,58.14
2018-05-13T00:04:15.211Z,56.32
2018-05-13T00:04:50.869Z,80.42
2018-05-13T00:05:26.303Z,64.70
2018-05-13T00:06:01.694Z,52.62
2018-05-13T00:06:37.062Z,122.66
2018-05-13T00:07:12.488Z,99.98
2018-05-13T00:07:48.025Z,112.01
2018-05-13T00:08:23.580Z,60.42
2018-05-13T00:08:59.140Z,65.81
2018-05-13T00:09:34.677Z,116.56
2018-05-13T00:10:12.273Z,81.33
2018-05-13T00:10:47.707Z,62.78
2018-05-13T00:11:23.024Z,71.63
2018-05-13T00:11:58.275Z,63.06
2018-05-13T00:12:33.987Z,66.78
2018-05-13T00:13:09.504Z,75.14
2018-05-13T00:13:45.028Z,75.00
2018-05-13T00:14:20.278Z,86.65
2018-05-13T00:14:55.579Z,52.89
2018-05-13T00:15:31.009Z,75.95
2018-05-13T00:16:06.108Z,64.23
2018-05-13T00:16:41.126Z,67.44
2018-05-13T00:17:16.242Z,55.54
2018-05-13T00:17:51.756Z,70.22
2018-05-13T00:18:26.902Z,53.30
2018-05-13T00:19:02.234Z,76.36
2018-05-13T00:19:37.882Z,76.49
2018-05-13T00:20:13.339Z,72.93
2018-05-13T00:20:48.806Z,65.30
2018-05-13T00:21:24.287Z,92.85
2018-05-13T00:21:59.843Z,28.74
2018-05-13T00:22:35.477Z,72.83
2018-05-13T00:23:10.794Z,69.14
2018-05-13T00:23:46.159Z,67.75
2018-05-13T00:24:21.328Z,60.10
2018-05-13T00:24:56.987Z,63.81
2018-05-13T00:25:32.691Z,81.80
2018-05-13T00:26:07.917Z,67.54
2018-05-13T00:26:43.717Z,63.83
2018-05-13T00:27:19.158Z,66.99
2018-05-13T00:27:55.057Z,62.10
2018-05-13T00:28:30.715Z,91.40
2018-05-13T00:29:06.135Z,97.21
2018-05-13T00:29:41.339Z,67.00
2018-05-13T00:30:16.635Z,63.32
2018-05-13T00:30:52.011Z,78.82
2018-05-13T00:31:27.236Z,75.80
2018-05-13T00:32:02.745Z,81.44
2018-05-13T00:32:38.208Z,69.81
2018-05-13T00:33:13.699Z,83.26
2018-05-13T00:33:49.216Z,89.12
2018-05-13T00:34:24.646Z,61.59
2018-05-13T00:35:00.145Z,75.65
2018-05-13T00:35:35.764Z,76.60
2018-05-13T00:36:11.058Z,59.36
2018-05-13T00:36:46.618Z,47.63
2018-05-13T00:37:21.848Z,60.85
2018-05-13T00:37:57.187Z,67.22
2018-05-13T00:38:32.732Z,48.19
2018-05-13T00:39:08.244Z,68.16
2018-05-13T00:39:43.709Z,80.05
2018-05-13T00:40:19.186Z,81.56
2018-05-13T00:40:54.200Z,69.73
2018-05-13T00:41:29.364Z,63.56
2018-05-13T00:42:04.697Z,65.23
2018-05-13T00:42:40.108Z,59.36
2018-05-13T00:43:15.907Z,78.37
2018-05-13T00:43:51.118Z,55.96
2018-05-13T00:44:26.275Z,53.24
2018-05-13T00:45:01.934Z,71.34
2018-05-13T00:45:37.449Z,72.46
2018-05-13T00:46:12.857Z,75.00
2018-05-13T00:46:48.288Z,65.29
2018-05-13T00:47:23.592Z,54.82
2018-05-13T00:47:58.876Z,61.33
2018-05-13T00:48:34.383Z,69.58
2018-05-13T00:49:09.596Z,80.82
2018-05-13T00:49:45.277Z,77.71
2018-05-13T00:50:20.814Z,65.30
2018-05-13T00:50:55.981Z,76.48
2018-05-13T00:51:31.195Z,67.35
2018-05-13T00:52:06.287Z,79.05
2018-05-13T00:52:41.959Z,67.97
2018-05-13T00:53:17.017Z,77.84
2018-05-13T00:53:52.235Z,79.96
2018-05-13T00:54:27.535Z,55.57
2018-05-13T00:55:02.851Z,78.22
2018-05-13T00:55:38.346Z,73.43
2018-05-13T00:56:13.735Z,65.30
2018-05-13T00:56:49.321Z,70.32
2018-05-13T00:57:24.718Z,61.59
2018-05-13T00:58:00.395Z,65.30
2018-05-13T00:58:35.755Z,100.57
2018-05-13T00:59:11.201Z,82.35
2018-05-13T00:59:46.571Z,59.36
2018-05-13T01:00:22.002Z,47.95
2018-05-13T01:00:57.219Z,50.25
2018-05-13T01:01:32.629Z,35.31
2018-05-13T01:02:08.048Z,70.97
2018-05-13T01:02:43.588Z,75.00
2018-05-13T01:03:19.170Z,50.58
2018-05-13T01:03:54.546Z,67.40
2018-05-13T01:04:30.105Z,58.21
2018-05-13T01:05:05.448Z,67.65
2018-05-13T01:05:40.656Z,84.13
2018-05-13T01:06:15.977Z,57.84
2018-05-13T01:06:51.440Z,79.20
2018-05-13T01:07:26.821Z,57.84
2018-05-13T01:08:02.054Z,65.04
2018-05-13T01:08:37.610Z,51.79
2018-05-13T01:09:12.813Z,67.51
2018-05-13T01:09:48.345Z,53.36
2018-05-13T01:10:23.767Z,68.70
2018-05-13T01:10:58.826Z,71.63
2018-05-13T01:11:34.407Z,75.00
2018-05-13T01:12:09.863Z,75.00
2018-05-13T01:12:47.800Z,68.47
2018-05-13T01:13:23.285Z,68.86
2018-05-13T01:13:58.506Z,75.00
2018-05-13T01:14:33.850Z,75.00
2018-05-13T01:15:09.286Z,75.00
2018-05-13T01:15:44.668Z,75.00
2018-05-13T01:16:20.129Z,52.52
2018-05-13T01:16:55.273Z,47.95
2018-05-13T01:17:30.573Z,75.00
2018-05-13T01:18:06.124Z,85.47
2018-05-13T01:18:41.480Z,77.62
2018-05-13T01:19:17.824Z,88.91
2018-05-13T01:19:53.235Z,120.00
2018-05-13T01:20:28.503Z,76.32
2018-05-13T01:21:03.877Z,75.00
2018-05-13T01:21:39.301Z,75.00
2018-05-13T01:22:14.901Z,75.00
2018-05-13T01:22:50.276Z,75.00
2018-05-13T01:23:25.803Z,75.00
2018-05-13T01:24:01.273Z,75.00
2018-05-13T01:24:36.499Z,61.05
2018-05-13T01:25:11.684Z,75.00
2018-05-13T01:25:46.859Z,75.51
2018-05-13T01:26:22.199Z,75.00
2018-05-13T01:26:57.887Z,69.90
2018-05-13T01:27:33.233Z,77.18
2018-05-13T01:28:08.726Z,75.00
2018-05-13T01:28:44.063Z,75.00
2018-05-13T01:29:19.170Z,75.00
2018-05-13T01:29:54.696Z,75.00
2018-05-13T01:30:29.608Z,75.00
2018-05-13T01:31:05.078Z,75.00
2018-05-13T01:31:40.503Z,70.25
2018-05-13T01:32:15.918Z,70.97
2018-05-13T01:32:51.382Z,75.00
2018-05-13T01:33:26.674Z,63.08
2018-05-13T01:34:02.113Z,75.00
2018-05-13T01:34:37.750Z,66.74
2018-05-13T01:35:13.347Z,68.81
2018-05-13T01:35:48.556Z,76.64
2018-05-13T01:36:23.953Z,59.03
2018-05-13T01:36:59.287Z,39.71
2018-05-13T01:37:34.513Z,30.00
2018-05-13T01:38:09.883Z,62.59
2018-05-13T01:38:45.190Z,78.54
2018-05-13T01:39:20.998Z,69.63
2018-05-13T01:39:56.426Z,112.44
2018-05-13T01:40:31.540Z,41.17
2018-05-13T01:41:07.087Z,55.57
2018-05-13T01:41:42.437Z,63.08
2018-05-13T01:42:17.720Z,75.00
2018-05-13T01:42:52.876Z,50.85
2018-05-13T01:43:28.094Z,117.34
2018-05-13T01:44:03.365Z,75.04
2018-05-13T01:44:38.781Z,69.31
2018-05-13T01:45:14.410Z,73.68
2018-05-13T01:45:49.637Z,69.58
2018-05-13T01:46:25.071Z,57.85
2018-05-13T01:47:00.994Z,84.15
2018-05-13T01:47:36.492Z,63.08
2018-05-13T01:48:12.148Z,60.85
2018-05-13T01:48:47.525Z,65.28
2018-05-13T01:49:22.845Z,57.79
2018-05-13T01:49:58.180Z,88.34
2018-05-13T01:50:33.786Z,75.03
2018-05-13T01:51:08.988Z,88.59
2018-05-13T01:51:44.349Z,66.01
2018-05-13T01:52:19.721Z,68.17
2018-05-13T01:52:54.927Z,78.86
2018-05-13T01:53:30.195Z,48.68
2018-05-13T01:54:05.374Z,54.80
2018-05-13T01:54:40.826Z,70.97
2018-05-13T01:55:16.230Z,68.11
2018-05-13T01:55:51.451Z,61.60
2018-05-13T01:56:26.561Z,66.74
2018-05-13T01:57:02.025Z,64.55
2018-05-13T01:57:37.461Z,50.85
2018-05-13T01:58:12.994Z,60.10
2018-05-13T01:58:48.357Z,57.49
2018-05-13T01:59:23.913Z,172.71
2018-05-13T01:59:59.642Z,63.32
2018-05-13T02:00:34.740Z,117.98
2018-05-13T02:01:09.731Z,93.31
2018-05-13T02:01:45.087Z,90.71
2018-05-13T02:02:20.408Z,47.53
2018-05-13T02:02:56.000Z,54.80
2018-05-13T02:03:31.242Z,50.20
2018-05-13T02:04:06.830Z,75.00
2018-05-13T02:04:42.082Z,75.00
2018-05-13T02:05:17.161Z,67.02
2018-05-13T02:05:53.151Z,67.99
2018-05-13T02:06:29.148Z,75.00
2018-05-13T02:07:04.449Z,62.34
2018-05-13T02:07:39.758Z,79.87
2018-05-13T02:08:15.311Z,62.35
2018-05-13T02:08:50.876Z,75.00
2018-05-13T02:09:26.126Z,77.66
2018-05-13T02:10:01.584Z,66.74
2018-05-13T02:10:37.227Z,70.25
2018-05-13T02:11:12.943Z,73.49
2018-05-13T02:11:48.050Z,61.83
2018-05-13T02:12:23.467Z,64.39
2018-05-13T02:12:58.622Z,75.00
2018-05-13T02:13:34.126Z,108.11
2018-05-13T02:14:09.593Z,87.33
2018-05-13T02:14:44.852Z,77.97
2018-05-13T02:15:19.941Z,62.32
2018-05-13T02:15:55.327Z,78.00
2018-05-13T02:16:30.832Z,60.27
2018-05-13T02:17:06.347Z,89.82
2018-05-13T02:17:41.626Z,67.80
2018-05-13T02:18:16.952Z,67.93
2018-05-13T02:18:52.316Z,61.25
2018-05-13T02:19:27.736Z,64.46
2018-05-13T02:20:03.155Z,106.27
2018-05-13T02:20:38.302Z,67.61
2018-05-13T02:21:13.645Z,77.66
2018-05-13T02:21:49.112Z,70.54
2018-05-13T02:22:24.954Z,69.19
2018-05-13T02:23:00.414Z,64.87
2018-05-13T02:23:35.529Z,68.81
2018-05-13T02:24:10.836Z,88.74
2018-05-13T02:24:46.258Z,49.53
2018-05-13T02:25:21.531Z,75.75
2018-05-13T02:25:56.911Z,71.61
2018-05-13T02:26:32.276Z,66.74
2018-05-13T02:27:07.940Z,73.68
2018-05-13T02:27:43.574Z,76.81
2018-05-13T02:28:18.853Z,62.85
2018-05-13T02:28:54.443Z,59.36
2018-05-13T02:29:30.150Z,79.19
2018-05-13T02:30:05.434Z,75.85
2018-05-13T02:30:40.978Z,69.59
2018-05-13T02:31:16.153Z,69.58
2018-05-13T02:31:51.523Z,63.08
2018-05-13T02:32:26.995Z,64.53
2018-05-13T02:33:02.323Z,65.10
2018-05-13T02:33:37.762Z,85.32
2018-05-13T02:34:13.236Z,70.07
2018-05-13T02:34:48.777Z,64.81
2018-05-13T02:35:24.045Z,70.72
2018-05-13T02:35:59.306Z,67.48
2018-05-13T02:36:34.653Z,53.30
2018-05-13T02:37:09.839Z,60.86
2018-05-13T02:37:45.030Z,69.63
2018-05-13T02:38:20.280Z,74.26
2018-05-13T02:38:55.713Z,70.99
2018-05-13T02:39:31.354Z,75.15
2018-05-13T02:40:06.545Z,56.34
2018-05-13T02:40:42.212Z,58.82
2018-05-13T02:41:17.772Z,57.11
2018-05-13T02:41:53.142Z,60.10
2018-05-13T02:42:28.499Z,59.20
2018-05-13T02:43:03.719Z,58.35
2018-05-13T02:43:39.090Z,70.72
2018-05-13T02:44:14.325Z,56.50
2018-05-13T02:44:49.653Z,55.93
2018-05-13T02:45:25.078Z,66.41
2018-05-13T02:46:00.158Z,67.09
2018-05-13T02:46:35.506Z,75.03
2018-05-13T02:47:10.915Z,72.17
2018-05-13T02:47:46.147Z,62.34
2018-05-13T02:48:21.587Z,75.00
2018-05-13T02:48:56.908Z,64.17
2018-05-13T02:49:32.325Z,62.84
2018-05-13T02:50:07.512Z,75.62
2018-05-13T02:50:43.028Z,97.11
2018-05-13T02:51:18.314Z,30.00
2018-05-13T02:51:53.760Z,47.16
2018-05-13T02:52:29.073Z,71.09
2018-05-13T02:53:04.520Z,61.21
2018-05-13T02:53:39.632Z,75.00
2018-05-13T02:54:15.174Z,75.00
2018-05-13T02:54:50.482Z,57.80
2018-05-13T02:55:26.029Z,89.70
2018-05-13T02:56:01.224Z,45.38
2018-05-13T02:56:36.857Z,55.61
2018-05-13T02:57:12.077Z,67.48
2018-05-13T02:57:47.561Z,64.79
2018-05-13T02:58:23.162Z,30.00
2018-05-13T02:58:58.402Z,206.17
2018-05-13T02:59:33.775Z,249.62
2018-05-13T03:00:09.333Z,224.45
2018-05-13T03:00:44.762Z,216.54
2018-05-13T03:01:20.348Z,246.01
2018-05-13T03:01:55.697Z,214.03
2018-05-13T03:02:30.822Z,222.04
2018-05-13T03:03:06.265Z,230.36
2018-05-13T03:03:41.595Z,141.18
2018-05-13T03:04:16.994Z,62.66
2018-05-13T03:04:52.332Z,57.59
2018-05-13T03:05:27.636Z,80.42
2018-05-13T03:06:02.908Z,91.08
2018-05-13T03:06:38.077Z,72.34
2018-05-13T03:07:13.442Z,72.98
2018-05-13T03:07:48.989Z,79.50
2018-05-13T03:08:24.599Z,63.06
2018-05-13T03:09:00.040Z,65.30
2018-05-13T03:09:35.362Z,64.55
2018-05-13T03:10:10.689Z,77.25
2018-05-13T03:10:46.019Z,64.55
2018-05-13T03:11:21.366Z,63.78
2018-05-13T03:11:56.754Z,75.00
2018-05-13T03:12:32.216Z,63.19
2018-05-13T03:13:07.609Z,87.17
2018-05-13T03:13:43.150Z,63.83
2018-05-13T03:14:18.481Z,69.58
2018-05-13T03:14:53.867Z,132.91
2018-05-13T03:15:29.238Z,81.01
2018-05-13T03:16:04.693Z,65.70
2018-05-13T03:16:40.013Z,48.68
2018-05-13T03:17:15.471Z,75.00
2018-05-13T03:17:50.719Z,148.09
2018-05-13T03:18:26.326Z,110.53
2018-05-13T03:19:01.700Z,93.50
2018-05-13T03:19:39.015Z,87.44
2018-05-13T03:20:15.080Z,75.00
2018-05-13T03:20:50.457Z,136.88
2018-05-13T03:21:25.597Z,170.47
2018-05-13T03:22:00.940Z,72.94
2018-05-13T03:22:36.047Z,58.60
2018-05-13T03:23:11.391Z,85.72
2018-05-13T03:23:47.026Z,40.18
2018-05-13T03:24:22.323Z,59.57
2018-05-13T03:24:57.662Z,62.93
2018-05-13T03:25:32.951Z,79.76
2018-05-13T03:26:08.243Z,56.78
2018-05-13T03:26:43.755Z,61.21
2018-05-13T03:27:19.308Z,58.60
2018-05-13T03:27:54.877Z,56.36
2018-05-13T03:28:30.164Z,63.06
2018-05-13T03:29:05.393Z,65.10
2018-05-13T03:29:40.501Z,70.02
2018-05-13T03:30:16.095Z,62.30
2018-05-13T03:30:51.256Z,41.72
2018-05-13T03:31:26.593Z,226.70
2018-05-13T03:32:01.977Z,242.88
2018-05-13T03:32:37.363Z,221.74
2018-05-13T03:33:12.756Z,219.80
2018-05-13T03:33:48.040Z,239.57
2018-05-13T03:34:23.393Z,155.73
2018-05-13T03:34:58.880Z,172.20
2018-05-13T03:35:34.247Z,181.75
2018-05-13T03:36:09.464Z,120.54
2018-05-13T03:36:44.707Z,80.77
2018-05-13T03:37:20.036Z,45.57
2018-05-13T03:37:55.492Z,31.74
2018-05-13T03:38:30.899Z,57.38
2018-05-13T03:39:06.116Z,76.59
2018-05-13T03:39:41.372Z,77.05
2018-05-13T03:40:16.679Z,146.78
2018-05-13T03:40:52.240Z,207.82
2018-05-13T03:41:27.602Z,99.53
2018-05-13T03:42:02.934Z,49.90
2018-05-13T03:42:38.205Z,30.00
2018-05-13T03:43:13.570Z,60.86
2018-05-13T03:43:49.047Z,119.49
2018-05-13T03:44:24.288Z,69.15
2018-05-13T03:44:59.730Z,68.17
2018-05-13T03:45:35.373Z,47.16
2018-05-13T03:46:10.917Z,88.95
2018-05-13T03:46:46.373Z,261.76
2018-05-13T03:47:22.051Z,210.00
2018-05-13T03:47:57.446Z,219.88
2018-05-13T03:48:32.885Z,255.74
2018-05-13T03:49:08.377Z,96.75
2018-05-13T03:49:44.070Z,120.00
2018-05-13T03:50:19.337Z,84.04
2018-05-13T03:50:54.604Z,30.00
2018-05-13T03:51:30.370Z,30.00
2018-05-13T03:52:05.681Z,30.00
2018-05-13T03:52:41.102Z,30.00
2018-05-13T03:53:16.646Z,30.00
2018-05-13T03:53:51.835Z,30.00
2018-05-13T03:54:27.204Z,30.00
2018-05-13T03:55:02.673Z,30.00
2018-05-13T03:55:37.996Z,39.80
2018-05-13T03:56:13.511Z,30.00
2018-05-13T03:56:48.887Z,30.00
2018-05-13T03:57:24.347Z,29.41
2018-05-13T03:57:59.837Z,51.94
2018-05-13T03:58:35.202Z,58.64
2018-05-13T03:59:10.559Z,167.66
2018-05-13T03:59:46.123Z,166.27
2018-05-13T04:00:21.575Z,166.36
2018-05-13T04:00:56.909Z,175.83
2018-05-13T04:01:32.120Z,75.00
2018-05-13T04:02:07.353Z,48.73
2018-05-13T04:02:44.522Z,67.44
2018-05-13T04:03:20.107Z,67.19
2018-05-13T04:03:55.283Z,85.56
2018-05-13T04:04:30.650Z,68.65
2018-05-13T04:05:05.814Z,58.60
2018-05-13T04:05:41.275Z,75.03
2018-05-13T04:06:16.827Z,132.07
2018-05-13T04:06:52.220Z,103.96
2018-05-13T04:07:27.703Z,37.59
2018-05-13T04:08:03.090Z,62.30
2018-05-13T04:08:38.469Z,79.45
2018-05-13T04:09:13.719Z,75.62
2018-05-13T04:09:48.952Z,27.20
2018-05-13T04:10:24.140Z,69.23
2018-05-13T04:10:59.304Z,119.31
2018-05-13T04:11:35.166Z,93.00
2018-05-13T04:12:10.694Z,117.98
2018-05-13T04:12:46.012Z,49.53
2018-05-13T04:13:21.456Z,82.37
2018-05-13T04:13:56.882Z,110.11
2018-05-13T04:14:32.185Z,59.53
2018-05-13T04:15:07.749Z,47.16
2018-05-13T04:15:42.989Z,75.00
2018-05-13T04:16:18.233Z,80.98
2018-05-13T04:16:53.723Z,206.59
2018-05-13T04:17:29.501Z,104.57
2018-05-13T04:18:05.114Z,66.38
2018-05-13T04:18:40.570Z,105.93
2018-05-13T04:19:15.933Z,183.22
2018-05-13T04:19:51.271Z,221.01
2018-05-13T04:20:26.777Z,204.58
2018-05-13T04:21:02.400Z,180.95
2018-05-13T04:21:37.791Z,210.00
2018-05-13T04:22:13.082Z,210.00
2018-05-13T04:22:48.479Z,226.12
2018-05-13T04:23:24.034Z,221.26
2018-05-13T04:23:59.461Z,203.93
2018-05-13T04:24:34.747Z,99.07
2018-05-13T04:25:10.182Z,80.29
2018-05-13T04:25:45.499Z,96.77
2018-05-13T04:26:20.911Z,179.04
2018-05-13T04:26:56.281Z,210.00
2018-05-13T04:27:31.432Z,210.00
2018-05-13T04:28:07.003Z,206.70
2018-05-13T04:28:42.355Z,210.00
2018-05-13T04:29:18.114Z,210.00
2018-05-13T04:29:53.456Z,210.00
2018-05-13T04:30:28.859Z,210.00
2018-05-13T04:31:04.121Z,226.43
2018-05-13T04:31:39.494Z,210.00
2018-05-13T04:32:14.991Z,214.03
2018-05-13T04:32:50.307Z,252.27
2018-05-13T04:33:25.687Z,89.56
2018-05-13T04:34:01.414Z,75.00
2018-05-13T04:34:37.119Z,75.00
2018-05-13T04:35:12.345Z,75.00
2018-05-13T04:35:47.625Z,75.00
2018-05-13T04:36:22.790Z,53.27
2018-05-13T04:36:58.112Z,62.86
2018-05-13T04:37:33.693Z,120.00
2018-05-13T04:38:08.737Z,153.28
2018-05-13T04:38:44.005Z,255.00
2018-05-13T04:39:19.357Z,255.00
2018-05-13T04:39:54.689Z,255.00
2018-05-13T04:40:30.041Z,247.44
2018-05-13T04:41:05.235Z,232.71
2018-05-13T04:41:40.821Z,210.00
2018-05-13T04:42:16.197Z,255.00
2018-05-13T04:42:51.684Z,191.59
2018-05-13T04:43:27.060Z,74.26
2018-05-13T04:44:02.505Z,216.18
2018-05-13T04:44:37.929Z,267.71
2018-05-13T04:45:13.562Z,64.60
2018-05-13T04:45:48.974Z,62.31
2018-05-13T04:46:24.195Z,75.00
2018-05-13T04:46:59.471Z,75.00
2018-05-13T04:47:35.922Z,75.00
2018-05-13T04:48:11.163Z,75.00
2018-05-13T04:48:46.745Z,75.00
2018-05-13T04:49:22.133Z,75.00
2018-05-13T04:49:57.627Z,75.00
2018-05-13T04:50:32.991Z,108.43
2018-05-13T04:51:08.451Z,209.55
2018-05-13T04:51:43.931Z,191.19
2018-05-13T04:52:19.328Z,65.22
2018-05-13T04:52:54.764Z,51.73
2018-05-13T04:53:29.995Z,111.66
2018-05-13T04:54:05.419Z,17.99
2018-05-13T04:54:41.081Z,57.25
2018-05-13T04:55:16.969Z,65.23
2018-05-13T04:55:52.525Z,67.85
2018-05-13T04:56:27.942Z,63.81
2018-05-13T04:57:03.343Z,51.30
2018-05-13T04:57:38.890Z,70.85
2018-05-13T04:58:14.349Z,70.48
2018-05-13T04:58:49.626Z,64.34
2018-05-13T04:59:25.205Z,74.00
2018-05-13T05:00:00.742Z,59.30
2018-05-13T05:00:36.676Z,88.59
2018-05-13T05:01:12.242Z,42.54
2018-05-13T05:01:47.483Z,69.34
2018-05-13T05:02:22.709Z,73.20
2018-05-13T05:02:58.225Z,160.02
2018-05-13T05:03:34.379Z,181.11
2018-05-13T05:04:10.755Z,89.04
2018-05-13T05:04:46.236Z,72.69
2018-05-13T05:05:21.607Z,66.46
2018-05-13T05:05:57.191Z,92.76
2018-05-13T05:06:33.685Z,51.88
2018-05-13T05:07:09.062Z,90.87
2018-05-13T05:07:44.430Z,121.50
2018-05-13T05:08:20.022Z,118.36
2018-05-13T05:08:55.470Z,83.46
2018-05-13T05:09:30.834Z,36.20
2018-05-13T05:10:06.280Z,167.66
2018-05-13T05:10:41.601Z,225.38
2018-05-13T05:11:17.067Z,255.00
2018-05-13T05:11:52.325Z,255.00
2018-05-13T05:12:27.451Z,230.20
2018-05-13T05:13:02.792Z,222.80
2018-05-13T05:13:38.320Z,241.60
2018-05-13T05:14:13.682Z,255.00
2018-05-13T05:14:49.318Z,249.58
2018-05-13T05:15:24.611Z,255.00
2018-05-13T05:16:00.151Z,255.00
2018-05-13T05:16:35.596Z,255.00
2018-05-13T05:17:10.909Z,255.00
2018-05-13T05:17:46.199Z,255.00
2018-05-13T05:18:22.275Z,255.00
2018-05-13T05:18:57.728Z,255.00
2018-05-13T05:19:33.001Z,255.00
2018-05-13T05:20:08.628Z,255.00
2018-05-13T05:20:44.127Z,255.00
2018-05-13T05:21:19.590Z,255.00
2018-05-13T05:21:55.373Z,255.00
2018-05-13T05:22:30.592Z,255.00
2018-05-13T05:23:06.041Z,255.00
2018-05-13T05:23:41.293Z,233.27
2018-05-13T05:24:17.104Z,210.00
2018-05-13T05:24:52.370Z,210.00
2018-05-13T05:25:28.031Z,210.00
2018-05-13T05:26:03.510Z,210.00
2018-05-13T05:26:38.758Z,210.00
2018-05-13T05:27:14.169Z,210.00
2018-05-13T05:27:49.435Z,210.00
2018-05-13T05:28:25.015Z,210.00
2018-05-13T05:29:00.245Z,210.00
2018-05-13T05:29:35.581Z,210.00
2018-05-13T05:30:10.963Z,210.00
2018-05-13T05:30:46.213Z,210.00
2018-05-13T05:31:21.784Z,210.00
2018-05-13T05:31:57.434Z,210.00
2018-05-13T05:32:32.914Z,210.00
2018-05-13T05:33:08.569Z,210.00
2018-05-13T05:33:44.013Z,210.00
2018-05-13T05:34:19.634Z,210.00
2018-05-13T05:34:55.365Z,210.00
2018-05-13T05:35:30.941Z,210.00
2018-05-13T05:36:06.761Z,210.00
2018-05-13T05:36:42.214Z,210.00
2018-05-13T05:37:17.587Z,210.00
2018-05-13T05:37:53.046Z,210.00
2018-05-13T05:38:28.612Z,210.00
2018-05-13T05:39:04.066Z,210.00
2018-05-13T05:39:39.471Z,210.00
2018-05-13T05:40:15.005Z,210.00
2018-05-13T05:40:50.593Z,186.73
2018-05-13T05:41:26.113Z,166.27
2018-05-13T05:42:01.723Z,165.00
2018-05-13T05:42:37.150Z,166.36
2018-05-13T05:43:12.437Z,171.88
2018-05-13T05:43:48.017Z,166.32
2018-05-13T05:44:23.790Z,170.45
2018-05-13T05:44:59.531Z,82.54
2018-05-13T05:45:35.111Z,57.15
2018-05-13T05:46:10.438Z,36.83
2018-05-13T05:46:45.591Z,87.88
2018-05-13T05:47:21.351Z,96.53
2018-05-13T05:47:56.794Z,87.40
2018-05-13T05:48:31.916Z,205.31
2018-05-13T05:49:07.553Z,210.00
2018-05-13T05:49:43.138Z,210.00
2018-05-13T05:50:19.262Z,210.00
2018-05-13T05:50:54.527Z,210.00
2018-05-13T05:51:30.091Z,210.00
2018-05-13T05:52:05.462Z,210.00
2018-05-13T05:52:40.903Z,180.77
2018-05-13T05:53:16.276Z,255.00
2018-05-13T05:53:51.480Z,255.00
2018-05-13T05:54:27.248Z,255.00
2018-05-13T05:55:02.848Z,255.00
2018-05-13T05:55:38.165Z,207.99
2018-05-13T05:56:13.496Z,87.93
2018-05-13T05:56:49.300Z,191.81
2018-05-13T05:57:25.267Z,250.25
2018-05-13T05:58:00.758Z,250.44
2018-05-13T05:58:36.273Z,226.32
2018-05-13T05:59:11.354Z,168.81
2018-05-13T05:59:46.849Z,74.14
2018-05-13T06:00:22.383Z,72.17
2018-05-13T06:00:57.973Z,45.64
2018-05-13T06:01:33.273Z,105.84
2018-05-13T06:02:08.572Z,120.00
2018-05-13T06:02:43.955Z,120.00
2018-05-13T06:03:19.311Z,120.00
2018-05-13T06:03:54.622Z,120.00
2018-05-13T06:04:29.947Z,120.00
2018-05-13T06:05:05.055Z,120.00
2018-05-13T06:05:40.776Z,108.83
2018-05-13T06:06:16.910Z,191.79
2018-05-13T06:06:52.412Z,210.00
2018-05-13T06:07:27.658Z,210.00
2018-05-13T06:08:02.844Z,82.79
2018-05-13T06:08:38.188Z,75.00
2018-05-13T06:09:13.621Z,95.65
2018-05-13T06:09:49.214Z,121.62
2018-05-13T06:10:24.660Z,30.00
2018-05-13T06:11:00.005Z,30.00
2018-05-13T06:11:35.540Z,56.75
2018-05-13T06:12:10.848Z,75.00
2018-05-13T06:12:46.327Z,75.00
2018-05-13T06:13:21.617Z,75.00
2018-05-13T06:13:57.284Z,75.00
2018-05-13T06:14:32.756Z,75.00
2018-05-13T06:15:08.113Z,75.00
2018-05-13T06:15:43.446Z,70.20
2018-05-13T06:16:19.144Z,58.27
2018-05-13T06:16:54.682Z,71.27
2018-05-13T06:17:30.206Z,56.35
2018-05-13T06:18:05.755Z,74.31
2018-05-13T06:18:41.032Z,75.00
2018-05-13T06:19:16.247Z,75.00
2018-05-13T06:19:51.664Z,75.00
2018-05-13T06:20:26.700Z,77.66
2018-05-13T06:21:02.017Z,37.90
2018-05-13T06:21:37.348Z,74.41
2018-05-13T06:22:12.474Z,75.00
2018-05-13T06:22:48.271Z,72.27
2018-05-13T06:23:23.693Z,46.43
2018-05-13T06:23:59.056Z,57.62
2018-05-13T06:24:34.522Z,75.00
2018-05-13T06:25:09.740Z,75.00
2018-05-13T06:25:45.402Z,64.55
2018-05-13T06:26:20.894Z,91.64
2018-05-13T06:26:56.451Z,112.38
2018-05-13T06:27:31.967Z,72.85
2018-05-13T06:28:07.391Z,68.47
2018-05-13T06:28:43.023Z,67.44
2018-05-13T06:29:18.643Z,75.00
2018-05-13T06:29:54.790Z,75.00
2018-05-13T06:30:30.165Z,75.00
2018-05-13T06:31:06.779Z,75.00
2018-05-13T06:31:42.049Z,75.00
2018-05-13T06:32:17.785Z,75.00
2018-05-13T06:32:53.232Z,93.01
2018-05-13T06:33:28.584Z,87.52
2018-05-13T06:34:03.882Z,70.71
2018-05-13T06:34:39.615Z,58.65
2018-05-13T06:35:14.959Z,70.97
2018-05-13T06:35:50.274Z,75.00
2018-05-13T06:36:25.882Z,130.18
2018-05-13T06:37:01.291Z,130.76
2018-05-13T06:37:36.863Z,61.71
2018-05-13T06:38:12.349Z,54.87
2018-05-13T06:38:47.564Z,71.84
2018-05-13T06:39:22.983Z,89.72
2018-05-13T06:39:58.191Z,132.89
2018-05-13T06:40:33.617Z,66.26
2018-05-13T06:41:08.780Z,90.83
2018-05-13T06:41:44.245Z,75.00
2018-05-13T06:42:19.904Z,67.28
2018-05-13T06:42:55.361Z,41.95
2018-05-13T06:43:30.967Z,76.45
2018-05-13T06:44:06.392Z,95.02
2018-05-13T06:44:42.133Z,49.75
2018-05-13T06:45:17.542Z,68.72
2018-05-13T06:45:52.727Z,194.25
2018-05-13T06:46:28.336Z,68.34
2018-05-13T06:47:03.884Z,58.36
2018-05-13T06:47:39.771Z,75.00
2018-05-13T06:48:15.631Z,102.84
2018-05-13T06:48:51.014Z,120.00
2018-05-13T06:49:26.542Z,50.26
2018-05-13T06:50:02.163Z,59.04
2018-05-13T06:50:37.937Z,66.57
2018-05-13T06:51:13.363Z,79.87
2018-05-13T06:51:48.751Z,57.09
2018-05-13T06:52:24.265Z,75.00
2018-05-13T06:52:59.678Z,75.00
2018-05-13T06:53:35.169Z,81.21
2018-05-13T06:54:10.632Z,61.60
2018-05-13T06:54:45.998Z,59.80
2018-05-13T06:55:21.643Z,45.66
2018-05-13T06:55:57.036Z,39.05
2018-05-13T06:56:32.422Z,45.64
2018-05-13T06:57:07.578Z,57.03
2018-05-13T06:57:43.150Z,44.72
2018-05-13T06:58:18.861Z,75.00
2018-05-13T06:58:54.433Z,66.02
2018-05-13T06:59:29.821Z,129.19
2018-05-13T07:00:05.272Z,71.10
2018-05-13T07:00:40.939Z,55.39
2018-05-13T07:01:16.396Z,49.47
2018-05-13T07:01:51.922Z,58.41
2018-05-13T07:02:27.128Z,97.57
2018-05-13T07:03:02.474Z,120.00
2018-05-13T07:03:38.141Z,120.00
2018-05-13T07:04:13.497Z,120.00
2018-05-13T07:04:49.129Z,120.00
2018-05-13T07:05:24.571Z,163.67
2018-05-13T07:05:59.889Z,210.00
2018-05-13T07:06:35.398Z,87.55
2018-05-13T07:07:10.698Z,210.00
2018-05-13T07:07:46.371Z,210.00
2018-05-13T07:08:21.745Z,93.89
2018-05-13T07:08:57.114Z,104.35
2018-05-13T07:09:32.338Z,81.83
2018-05-13T07:10:07.536Z,122.99
2018-05-13T07:10:43.614Z,210.00
2018-05-13T07:11:18.988Z,115.26
2018-05-13T07:11:55.354Z,104.79
2018-05-13T07:12:30.651Z,158.99
2018-05-13T07:13:06.210Z,201.68
2018-05-13T07:13:41.757Z,121.87
2018-05-13T07:14:17.186Z,128.62
2018-05-13T07:14:52.558Z,59.52
2018-05-13T07:15:28.158Z,91.28
2018-05-13T07:16:03.521Z,114.51
2018-05-13T07:16:39.174Z,65.30
2018-05-13T07:17:14.515Z,77.46
2018-05-13T07:17:49.882Z,65.02
2018-05-13T07:18:25.475Z,61.04
2018-05-13T07:19:00.884Z,69.25
2018-05-13T07:19:36.634Z,70.02
2018-05-13T07:20:12.273Z,55.54
2018-05-13T07:20:47.893Z,81.58
2018-05-13T07:21:23.336Z,60.22
2018-05-13T07:21:58.916Z,57.94
2018-05-13T07:22:34.590Z,70.11
2018-05-13T07:23:10.283Z,56.38
2018-05-13T07:23:45.889Z,60.56
2018-05-13T07:24:21.457Z,86.21
2018-05-13T07:24:56.850Z,70.57
2018-05-13T07:25:32.315Z,54.80
2018-05-13T07:26:07.836Z,112.56
2018-05-13T07:26:43.209Z,85.06
2018-05-13T07:27:18.790Z,52.26
2018-05-13T07:27:53.994Z,53.18
2018-05-13T07:28:29.337Z,58.31
2018-05-13T07:29:04.642Z,45.87
2018-05-13T07:29:40.220Z,68.97
2018-05-13T07:30:15.753Z,70.89
2018-05-13T07:30:51.018Z,71.43
2018-05-13T07:31:26.390Z,62.06
2018-05-13T07:32:02.072Z,53.62